sensor_id;sensor_type;location;lat;lon;timestamp;P1;durP1;ratioP1;P2;durP2;ratioP2
781;SDS011;374;52.568;13.402;2023-03-22T00:00:06;21.67;;;17.10;;
781;SDS011;374;52.568;13.402;2023-03-22T00:02:36;24.13;;;17.80;;
781;SDS011;374;52.568;13.402;2023-03-22T00:05:02;18.27;;;16.23;;
781;SDS011;374;52.568;13.402;2023-03-22T00:07:27;23.53;;;16.80;;
781;SDS011;374;52.568;13.402;2023-03-22T00:09:53;22.07;;;16.43;;
781;SDS011;374;52.568;13.402;2023-03-22T00:12:21;26.77;;;18.20;;
781;SDS011;374;52.568;13.402;2023-03-22T00:14:47;26.00;;;18.23;;
781;SDS011;374;52.568;13.402;2023-03-22T00:17:13;22.80;;;17.73;;
781;SDS011;374;52.568;13.402;2023-03-22T00:19:39;25.40;;;16.67;;
781;SDS011;374;52.568;13.402;2023-03-22T00:22:06;19.40;;;17.07;;
781;SDS011;374;52.568;13.402;2023-03-22T00:24:32;27.17;;;19.97;;
781;SDS011;374;52.568;13.402;2023-03-22T00:26:58;25.80;;;16.80;;
781;SDS011;374;52.568;13.402;2023-03-22T00:29:24;25.20;;;17.13;;
781;SDS011;374;52.568;13.402;2023-03-22T00:31:50;28.47;;;18.00;;
781;SDS011;374;52.568;13.402;2023-03-22T00:34:18;21.10;;;16.97;;
781;SDS011;374;52.568;13.402;2023-03-22T00:36:43;25.23;;;16.60;;
781;SDS011;374;52.568;13.402;2023-03-22T00:39:10;23.40;;;16.33;;
781;SDS011;374;52.568;13.402;2023-03-22T00:41:36;21.80;;;15.50;;
781;SDS011;374;52.568;13.402;2023-03-22T00:44:02;20.07;;;15.47;;
781;SDS011;374;52.568;13.402;2023-03-22T00:46:27;20.83;;;16.20;;
781;SDS011;374;52.568;13.402;2023-03-22T00:48:53;22.03;;;17.93;;
781;SDS011;374;52.568;13.402;2023-03-22T00:51:18;24.37;;;17.83;;
781;SDS011;374;52.568;13.402;2023-03-22T00:53:44;23.50;;;17.30;;
781;SDS011;374;52.568;13.402;2023-03-22T00:56:13;23.07;;;17.63;;
781;SDS011;374;52.568;13.402;2023-03-22T00:58:39;22.63;;;17.40;;
781;SDS011;374;52.568;13.402;2023-03-22T01:01:06;22.70;;;16.50;;
781;SDS011;374;52.568;13.402;2023-03-22T01:03:31;19.63;;;15.60;;
781;SDS011;374;52.568;13.402;2023-03-22T01:05:57;24.20;;;15.93;;
781;SDS011;374;52.568;13.402;2023-03-22T01:08:23;19.00;;;16.40;;
781;SDS011;374;52.568;13.402;2023-03-22T01:10:56;22.23;;;15.83;;
781;SDS011;374;52.568;13.402;2023-03-22T01:13:22;21.30;;;16.50;;
781;SDS011;374;52.568;13.402;2023-03-22T01:15:49;17.90;;;15.50;;
781;SDS011;374;52.568;13.402;2023-03-22T01:18:15;23.97;;;17.43;;
781;SDS011;374;52.568;13.402;2023-03-22T01:20:40;24.20;;;18.60;;
781;SDS011;374;52.568;13.402;2023-03-22T01:23:06;23.33;;;17.10;;
781;SDS011;374;52.568;13.402;2023-03-22T01:25:31;23.73;;;16.73;;
781;SDS011;374;52.568;13.402;2023-03-22T01:27:57;18.60;;;16.20;;
781;SDS011;374;52.568;13.402;2023-03-22T01:30:23;25.63;;;16.47;;
781;SDS011;374;52.568;13.402;2023-03-22T01:32:48;23.57;;;16.47;;
781;SDS011;374;52.568;13.402;2023-03-22T01:35:17;24.77;;;15.60;;
781;SDS011;374;52.568;13.402;2023-03-22T01:37:42;22.17;;;16.67;;
781;SDS011;374;52.568;13.402;2023-03-22T01:40:09;20.87;;;17.50;;
781;SDS011;374;52.568;13.402;2023-03-22T01:42:36;24.17;;;16.07;;
781;SDS011;374;52.568;13.402;2023-03-22T01:47:41;22.60;;;16.30;;
781;SDS011;374;52.568;13.402;2023-03-22T01:50:11;21.07;;;16.67;;
781;SDS011;374;52.568;13.402;2023-03-22T01:52:37;19.50;;;15.77;;
781;SDS011;374;52.568;13.402;2023-03-22T01:55:04;21.33;;;16.20;;
781;SDS011;374;52.568;13.402;2023-03-22T01:57:33;16.93;;;15.10;;
781;SDS011;374;52.568;13.402;2023-03-22T02:00:01;20.53;;;16.03;;
781;SDS011;374;52.568;13.402;2023-03-22T02:02:34;22.90;;;15.90;;
781;SDS011;374;52.568;13.402;2023-03-22T02:05:00;26.97;;;16.27;;
781;SDS011;374;52.568;13.402;2023-03-22T02:07:29;23.93;;;17.33;;
781;SDS011;374;52.568;13.402;2023-03-22T02:09:55;19.50;;;16.33;;
781;SDS011;374;52.568;13.402;2023-03-22T02:18:11;24.80;;;16.17;;
781;SDS011;374;52.568;13.402;2023-03-22T02:23:46;24.67;;;17.93;;
781;SDS011;374;52.568;13.402;2023-03-22T02:29:41;20.10;;;15.87;;
781;SDS011;374;52.568;13.402;2023-03-22T02:32:22;21.90;;;15.57;;
781;SDS011;374;52.568;13.402;2023-03-22T02:38:07;19.80;;;16.43;;
781;SDS011;374;52.568;13.402;2023-03-22T02:40:40;22.17;;;16.00;;
781;SDS011;374;52.568;13.402;2023-03-22T02:43:36;22.23;;;17.50;;
781;SDS011;374;52.568;13.402;2023-03-22T02:46:42;21.77;;;16.57;;
781;SDS011;374;52.568;13.402;2023-03-22T02:49:17;20.90;;;15.53;;
781;SDS011;374;52.568;13.402;2023-03-22T02:51:59;18.67;;;15.43;;
781;SDS011;374;52.568;13.402;2023-03-22T02:54:42;21.40;;;16.60;;
781;SDS011;374;52.568;13.402;2023-03-22T02:57:32;17.80;;;14.67;;
781;SDS011;374;52.568;13.402;2023-03-22T03:00:03;18.60;;;15.13;;
781;SDS011;374;52.568;13.402;2023-03-22T03:02:38;21.27;;;16.30;;
781;SDS011;374;52.568;13.402;2023-03-22T03:05:09;21.00;;;15.73;;
781;SDS011;374;52.568;13.402;2023-03-22T03:07:37;20.97;;;15.57;;
781;SDS011;374;52.568;13.402;2023-03-22T03:10:08;22.63;;;16.67;;
781;SDS011;374;52.568;13.402;2023-03-22T03:12:36;20.07;;;16.10;;
781;SDS011;374;52.568;13.402;2023-03-22T03:15:01;21.40;;;16.40;;
781;SDS011;374;52.568;13.402;2023-03-22T03:29:28;20.63;;;16.20;;
781;SDS011;374;52.568;13.402;2023-03-22T03:32:20;20.03;;;16.10;;
781;SDS011;374;52.568;13.402;2023-03-22T03:34:51;20.07;;;14.70;;
781;SDS011;374;52.568;13.402;2023-03-22T03:37:21;23.40;;;16.87;;
781;SDS011;374;52.568;13.402;2023-03-22T03:40:08;21.13;;;15.70;;
781;SDS011;374;52.568;13.402;2023-03-22T03:42:37;17.97;;;15.37;;
781;SDS011;374;52.568;13.402;2023-03-22T03:45:07;20.00;;;14.40;;
781;SDS011;374;52.568;13.402;2023-03-22T03:47:33;17.13;;;15.10;;
781;SDS011;374;52.568;13.402;2023-03-22T03:50:00;20.30;;;15.30;;
781;SDS011;374;52.568;13.402;2023-03-22T03:52:26;20.33;;;16.50;;
781;SDS011;374;52.568;13.402;2023-03-22T03:54:53;19.37;;;14.70;;
781;SDS011;374;52.568;13.402;2023-03-22T03:57:19;18.47;;;14.93;;
781;SDS011;374;52.568;13.402;2023-03-22T03:59:44;18.63;;;14.63;;
781;SDS011;374;52.568;13.402;2023-03-22T04:02:10;20.37;;;15.53;;
781;SDS011;374;52.568;13.402;2023-03-22T04:04:36;20.13;;;14.87;;
781;SDS011;374;52.568;13.402;2023-03-22T04:07:03;21.63;;;14.57;;
781;SDS011;374;52.568;13.402;2023-03-22T04:09:31;19.83;;;15.80;;
781;SDS011;374;52.568;13.402;2023-03-22T04:11:58;20.83;;;15.73;;
781;SDS011;374;52.568;13.402;2023-03-22T04:14:24;19.43;;;15.20;;
781;SDS011;374;52.568;13.402;2023-03-22T04:16:50;20.33;;;16.17;;
781;SDS011;374;52.568;13.402;2023-03-22T04:19:16;19.03;;;14.40;;
781;SDS011;374;52.568;13.402;2023-03-22T04:21:42;18.27;;;14.80;;
781;SDS011;374;52.568;13.402;2023-03-22T04:24:08;21.60;;;14.60;;
781;SDS011;374;52.568;13.402;2023-03-22T04:26:34;17.83;;;15.53;;
781;SDS011;374;52.568;13.402;2023-03-22T04:28:59;21.23;;;15.63;;
781;SDS011;374;52.568;13.402;2023-03-22T04:31:29;17.03;;;14.43;;
781;SDS011;374;52.568;13.402;2023-03-22T04:33:55;16.97;;;13.40;;
781;SDS011;374;52.568;13.402;2023-03-22T04:36:22;19.37;;;14.47;;
781;SDS011;374;52.568;13.402;2023-03-22T04:38:48;19.20;;;15.13;;
781;SDS011;374;52.568;13.402;2023-03-22T04:41:15;18.10;;;14.53;;
781;SDS011;374;52.568;13.402;2023-03-22T04:43:41;16.77;;;14.53;;
781;SDS011;374;52.568;13.402;2023-03-22T04:46:11;18.30;;;15.33;;
781;SDS011;374;52.568;13.402;2023-03-22T04:48:38;20.17;;;14.63;;
781;SDS011;374;52.568;13.402;2023-03-22T04:51:05;19.80;;;15.43;;
781;SDS011;374;52.568;13.402;2023-03-22T04:53:32;16.30;;;13.53;;
781;SDS011;374;52.568;13.402;2023-03-22T04:56:02;18.17;;;15.60;;
781;SDS011;374;52.568;13.402;2023-03-22T04:58:34;17.63;;;14.47;;
781;SDS011;374;52.568;13.402;2023-03-22T05:01:02;23.47;;;15.27;;
781;SDS011;374;52.568;13.402;2023-03-22T05:03:28;21.50;;;15.23;;
781;SDS011;374;52.568;13.402;2023-03-22T05:05:55;22.23;;;16.20;;
781;SDS011;374;52.568;13.402;2023-03-22T05:08:22;16.87;;;14.00;;
781;SDS011;374;52.568;13.402;2023-03-22T05:10:49;17.60;;;14.70;;
781;SDS011;374;52.568;13.402;2023-03-22T05:13:16;16.63;;;12.93;;
781;SDS011;374;52.568;13.402;2023-03-22T05:15:42;20.63;;;14.67;;
781;SDS011;374;52.568;13.402;2023-03-22T05:18:08;18.13;;;13.50;;
781;SDS011;374;52.568;13.402;2023-03-22T05:20:34;19.37;;;15.93;;
781;SDS011;374;52.568;13.402;2023-03-22T05:23:00;20.23;;;14.80;;
781;SDS011;374;52.568;13.402;2023-03-22T05:25:26;17.17;;;13.83;;
781;SDS011;374;52.568;13.402;2023-03-22T05:27:52;19.90;;;15.20;;
781;SDS011;374;52.568;13.402;2023-03-22T05:30:18;18.00;;;15.30;;
781;SDS011;374;52.568;13.402;2023-03-22T05:32:44;16.53;;;13.03;;
781;SDS011;374;52.568;13.402;2023-03-22T05:35:11;17.50;;;14.33;;
781;SDS011;374;52.568;13.402;2023-03-22T05:37:37;21.63;;;14.40;;
781;SDS011;374;52.568;13.402;2023-03-22T05:40:03;19.07;;;15.80;;
781;SDS011;374;52.568;13.402;2023-03-22T05:42:33;21.87;;;15.10;;
781;SDS011;374;52.568;13.402;2023-03-22T05:45:00;18.50;;;14.63;;
781;SDS011;374;52.568;13.402;2023-03-22T05:47:26;17.43;;;13.80;;
781;SDS011;374;52.568;13.402;2023-03-22T05:49:51;18.63;;;14.43;;
781;SDS011;374;52.568;13.402;2023-03-22T05:52:17;18.20;;;14.67;;
781;SDS011;374;52.568;13.402;2023-03-22T05:54:42;18.77;;;14.90;;
781;SDS011;374;52.568;13.402;2023-03-22T05:57:08;20.50;;;15.10;;
781;SDS011;374;52.568;13.402;2023-03-22T05:59:33;21.30;;;14.90;;
781;SDS011;374;52.568;13.402;2023-03-22T06:01:59;20.73;;;14.40;;
781;SDS011;374;52.568;13.402;2023-03-22T06:04:24;19.00;;;14.30;;
781;SDS011;374;52.568;13.402;2023-03-22T06:06:50;16.67;;;13.73;;
781;SDS011;374;52.568;13.402;2023-03-22T06:09:17;16.20;;;13.57;;
781;SDS011;374;52.568;13.402;2023-03-22T06:11:43;19.83;;;14.00;;
781;SDS011;374;52.568;13.402;2023-03-22T06:14:08;18.80;;;14.60;;
781;SDS011;374;52.568;13.402;2023-03-22T06:16:34;16.97;;;13.90;;
781;SDS011;374;52.568;13.402;2023-03-22T06:18:59;17.10;;;14.40;;
781;SDS011;374;52.568;13.402;2023-03-22T06:21:25;18.40;;;15.30;;
781;SDS011;374;52.568;13.402;2023-03-22T06:23:50;17.57;;;14.27;;
781;SDS011;374;52.568;13.402;2023-03-22T06:26:16;16.07;;;12.33;;
781;SDS011;374;52.568;13.402;2023-03-22T06:28:41;16.20;;;12.80;;
781;SDS011;374;52.568;13.402;2023-03-22T06:31:07;17.33;;;14.20;;
781;SDS011;374;52.568;13.402;2023-03-22T06:33:34;18.73;;;14.93;;
781;SDS011;374;52.568;13.402;2023-03-22T06:36:00;21.30;;;15.30;;
781;SDS011;374;52.568;13.402;2023-03-22T06:38:27;21.77;;;15.70;;
781;SDS011;374;52.568;13.402;2023-03-22T06:40:52;17.70;;;13.43;;
781;SDS011;374;52.568;13.402;2023-03-22T06:43:18;18.83;;;14.73;;
781;SDS011;374;52.568;13.402;2023-03-22T06:45:47;20.87;;;14.47;;
781;SDS011;374;52.568;13.402;2023-03-22T06:48:13;16.20;;;14.43;;
781;SDS011;374;52.568;13.402;2023-03-22T06:50:39;18.63;;;13.80;;
781;SDS011;374;52.568;13.402;2023-03-22T06:53:05;21.00;;;15.67;;
781;SDS011;374;52.568;13.402;2023-03-22T06:55:32;17.00;;;13.73;;
781;SDS011;374;52.568;13.402;2023-03-22T06:57:58;20.57;;;15.03;;
781;SDS011;374;52.568;13.402;2023-03-22T07:00:25;17.27;;;14.57;;
781;SDS011;374;52.568;13.402;2023-03-22T07:02:51;17.57;;;14.70;;
781;SDS011;374;52.568;13.402;2023-03-22T07:05:17;20.97;;;14.53;;
781;SDS011;374;52.568;13.402;2023-03-22T07:07:42;18.27;;;14.10;;
781;SDS011;374;52.568;13.402;2023-03-22T07:10:08;21.60;;;15.13;;
781;SDS011;374;52.568;13.402;2023-03-22T07:12:33;19.07;;;15.10;;
781;SDS011;374;52.568;13.402;2023-03-22T07:15:00;24.27;;;17.80;;
781;SDS011;374;52.568;13.402;2023-03-22T07:17:25;18.47;;;15.10;;
781;SDS011;374;52.568;13.402;2023-03-22T07:19:51;16.93;;;13.90;;
781;SDS011;374;52.568;13.402;2023-03-22T07:22:17;20.80;;;15.67;;
781;SDS011;374;52.568;13.402;2023-03-22T07:24:46;19.93;;;15.73;;
781;SDS011;374;52.568;13.402;2023-03-22T07:27:12;19.17;;;14.37;;
781;SDS011;374;52.568;13.402;2023-03-22T07:29:38;18.33;;;14.13;;
781;SDS011;374;52.568;13.402;2023-03-22T07:32:03;18.37;;;14.03;;
781;SDS011;374;52.568;13.402;2023-03-22T07:34:29;18.37;;;15.70;;
781;SDS011;374;52.568;13.402;2023-03-22T07:36:55;17.47;;;14.50;;
781;SDS011;374;52.568;13.402;2023-03-22T07:39:23;19.20;;;14.83;;
781;SDS011;374;52.568;13.402;2023-03-22T07:41:49;19.80;;;15.40;;
781;SDS011;374;52.568;13.402;2023-03-22T07:44:15;20.33;;;14.03;;
781;SDS011;374;52.568;13.402;2023-03-22T07:46:41;18.67;;;14.87;;
781;SDS011;374;52.568;13.402;2023-03-22T07:49:07;17.90;;;14.83;;
781;SDS011;374;52.568;13.402;2023-03-22T07:51:35;19.90;;;14.60;;
781;SDS011;374;52.568;13.402;2023-03-22T07:54:00;18.47;;;15.67;;
781;SDS011;374;52.568;13.402;2023-03-22T07:56:29;18.27;;;14.33;;
781;SDS011;374;52.568;13.402;2023-03-22T07:58:55;19.07;;;16.00;;
781;SDS011;374;52.568;13.402;2023-03-22T08:01:20;17.30;;;13.40;;
781;SDS011;374;52.568;13.402;2023-03-22T08:03:46;17.97;;;13.93;;
781;SDS011;374;52.568;13.402;2023-03-22T08:06:12;19.27;;;14.93;;
781;SDS011;374;52.568;13.402;2023-03-22T08:08:38;20.03;;;13.30;;
781;SDS011;374;52.568;13.402;2023-03-22T08:11:06;19.00;;;14.17;;
781;SDS011;374;52.568;13.402;2023-03-22T08:13:32;16.10;;;12.90;;
781;SDS011;374;52.568;13.402;2023-03-22T08:15:58;18.70;;;14.03;;
781;SDS011;374;52.568;13.402;2023-03-22T08:18:23;20.60;;;14.90;;
781;SDS011;374;52.568;13.402;2023-03-22T08:20:51;15.23;;;13.33;;
781;SDS011;374;52.568;13.402;2023-03-22T08:23:18;16.60;;;14.27;;
781;SDS011;374;52.568;13.402;2023-03-22T08:25:44;18.40;;;14.90;;
781;SDS011;374;52.568;13.402;2023-03-22T08:28:10;17.60;;;14.57;;
781;SDS011;374;52.568;13.402;2023-03-22T08:30:37;17.83;;;14.17;;
781;SDS011;374;52.568;13.402;2023-03-22T08:33:03;16.57;;;13.07;;
781;SDS011;374;52.568;13.402;2023-03-22T08:35:30;15.27;;;13.47;;
781;SDS011;374;52.568;13.402;2023-03-22T08:37:56;16.90;;;13.37;;
781;SDS011;374;52.568;13.402;2023-03-22T08:40:21;18.57;;;13.60;;
781;SDS011;374;52.568;13.402;2023-03-22T08:42:48;15.77;;;14.07;;
781;SDS011;374;52.568;13.402;2023-03-22T08:45:14;16.70;;;13.33;;
781;SDS011;374;52.568;13.402;2023-03-22T08:47:40;17.00;;;13.90;;
781;SDS011;374;52.568;13.402;2023-03-22T08:50:05;15.83;;;12.73;;
781;SDS011;374;52.568;13.402;2023-03-22T08:52:32;19.27;;;15.70;;
781;SDS011;374;52.568;13.402;2023-03-22T08:54:57;19.53;;;14.00;;
781;SDS011;374;52.568;13.402;2023-03-22T08:57:23;16.50;;;13.10;;
781;SDS011;374;52.568;13.402;2023-03-22T08:59:51;14.73;;;12.10;;
781;SDS011;374;52.568;13.402;2023-03-22T09:02:17;16.50;;;13.10;;
781;SDS011;374;52.568;13.402;2023-03-22T09:04:43;15.40;;;12.87;;
781;SDS011;374;52.568;13.402;2023-03-22T09:07:08;13.53;;;12.03;;
781;SDS011;374;52.568;13.402;2023-03-22T09:09:34;14.27;;;12.30;;
781;SDS011;374;52.568;13.402;2023-03-22T09:12:00;15.37;;;12.83;;
781;SDS011;374;52.568;13.402;2023-03-22T09:14:25;15.90;;;12.50;;
781;SDS011;374;52.568;13.402;2023-03-22T09:16:51;16.47;;;12.40;;
781;SDS011;374;52.568;13.402;2023-03-22T09:19:16;17.20;;;12.90;;
781;SDS011;374;52.568;13.402;2023-03-22T09:21:42;15.43;;;12.67;;
781;SDS011;374;52.568;13.402;2023-03-22T09:24:07;14.60;;;13.10;;
781;SDS011;374;52.568;13.402;2023-03-22T09:26:33;13.33;;;11.80;;
781;SDS011;374;52.568;13.402;2023-03-22T09:28:59;13.90;;;11.87;;
781;SDS011;374;52.568;13.402;2023-03-22T09:31:24;16.97;;;11.73;;
781;SDS011;374;52.568;13.402;2023-03-22T09:33:50;14.80;;;11.77;;
781;SDS011;374;52.568;13.402;2023-03-22T09:36:15;14.03;;;12.63;;
781;SDS011;374;52.568;13.402;2023-03-22T09:38:41;17.50;;;11.90;;
781;SDS011;374;52.568;13.402;2023-03-22T09:41:10;19.63;;;12.17;;
781;SDS011;374;52.568;13.402;2023-03-22T09:43:43;15.30;;;12.07;;
781;SDS011;374;52.568;13.402;2023-03-22T09:46:23;13.47;;;12.03;;
781;SDS011;374;52.568;13.402;2023-03-22T09:48:55;14.27;;;12.80;;
781;SDS011;374;52.568;13.402;2023-03-22T09:51:45;15.73;;;12.50;;
781;SDS011;374;52.568;13.402;2023-03-22T09:54:14;14.90;;;13.37;;
781;SDS011;374;52.568;13.402;2023-03-22T09:56:45;14.40;;;12.20;;
781;SDS011;374;52.568;13.402;2023-03-22T10:01:58;17.70;;;15.00;;
781;SDS011;374;52.568;13.402;2023-03-22T10:09:46;15.00;;;13.50;;
781;SDS011;374;52.568;13.402;2023-03-22T10:15:07;15.57;;;12.93;;
781;SDS011;374;52.568;13.402;2023-03-22T10:17:41;20.10;;;13.17;;
781;SDS011;374;52.568;13.402;2023-03-22T10:22:45;11.80;;;10.40;;
781;SDS011;374;52.568;13.402;2023-03-22T10:25:14;13.20;;;11.57;;
781;SDS011;374;52.568;13.402;2023-03-22T10:27:45;14.60;;;11.80;;
781;SDS011;374;52.568;13.402;2023-03-22T10:30:20;12.70;;;11.03;;
781;SDS011;374;52.568;13.402;2023-03-22T10:35:26;15.20;;;13.80;;
781;SDS011;374;52.568;13.402;2023-03-22T10:37:53;14.70;;;11.10;;
781;SDS011;374;52.568;13.402;2023-03-22T10:40:29;16.17;;;12.57;;
781;SDS011;374;52.568;13.402;2023-03-22T10:42:58;17.27;;;11.40;;
781;SDS011;374;52.568;13.402;2023-03-22T10:45:27;11.50;;;10.20;;
781;SDS011;374;52.568;13.402;2023-03-22T10:48:09;12.10;;;10.20;;
781;SDS011;374;52.568;13.402;2023-03-22T10:50:49;11.70;;;10.40;;
781;SDS011;374;52.568;13.402;2023-03-22T10:56:13;14.57;;;12.13;;
781;SDS011;374;52.568;13.402;2023-03-22T10:58:40;17.27;;;12.13;;
781;SDS011;374;52.568;13.402;2023-03-22T11:01:07;12.30;;;11.00;;
781;SDS011;374;52.568;13.402;2023-03-22T11:03:36;14.80;;;12.80;;
781;SDS011;374;52.568;13.402;2023-03-22T11:06:12;11.13;;;9.53;;
781;SDS011;374;52.568;13.402;2023-03-22T11:08:50;12.70;;;8.47;;
781;SDS011;374;52.568;13.402;2023-03-22T11:11:19;10.97;;;8.93;;
781;SDS011;374;52.568;13.402;2023-03-22T11:13:50;9.40;;;8.53;;
781;SDS011;374;52.568;13.402;2023-03-22T11:16:41;12.27;;;8.30;;
781;SDS011;374;52.568;13.402;2023-03-22T11:19:22;9.27;;;8.30;;
781;SDS011;374;52.568;13.402;2023-03-22T11:22:02;10.67;;;8.17;;
781;SDS011;374;52.568;13.402;2023-03-22T11:24:31;8.47;;;7.07;;
781;SDS011;374;52.568;13.402;2023-03-22T11:29:26;10.63;;;8.40;;
781;SDS011;374;52.568;13.402;2023-03-22T11:31:56;9.40;;;7.40;;
781;SDS011;374;52.568;13.402;2023-03-22T11:34:24;7.50;;;6.73;;
781;SDS011;374;52.568;13.402;2023-03-22T11:36:52;8.80;;;8.00;;
781;SDS011;374;52.568;13.402;2023-03-22T11:39:21;11.30;;;6.90;;
781;SDS011;374;52.568;13.402;2023-03-22T11:41:50;9.57;;;7.40;;
781;SDS011;374;52.568;13.402;2023-03-22T11:44:18;8.60;;;6.40;;
781;SDS011;374;52.568;13.402;2023-03-22T11:46:59;8.67;;;7.10;;
781;SDS011;374;52.568;13.402;2023-03-22T11:49:30;8.77;;;6.83;;
781;SDS011;374;52.568;13.402;2023-03-22T11:55:36;8.83;;;7.93;;
781;SDS011;374;52.568;13.402;2023-03-22T11:58:03;8.27;;;7.30;;
781;SDS011;374;52.568;13.402;2023-03-22T12:00:29;7.70;;;6.90;;
781;SDS011;374;52.568;13.402;2023-03-22T12:03:17;6.07;;;5.47;;
781;SDS011;374;52.568;13.402;2023-03-22T12:05:49;8.57;;;5.87;;
781;SDS011;374;52.568;13.402;2023-03-22T12:11:07;6.20;;;5.60;;
781;SDS011;374;52.568;13.402;2023-03-22T12:13:57;6.40;;;5.30;;
781;SDS011;374;52.568;13.402;2023-03-22T12:16:59;6.77;;;6.07;;
781;SDS011;374;52.568;13.402;2023-03-22T12:22:10;8.03;;;7.00;;
781;SDS011;374;52.568;13.402;2023-03-22T12:24:46;9.40;;;6.87;;
781;SDS011;374;52.568;13.402;2023-03-22T12:27:16;6.30;;;5.63;;
781;SDS011;374;52.568;13.402;2023-03-22T12:29:51;6.77;;;5.90;;
781;SDS011;374;52.568;13.402;2023-03-22T12:32:21;7.73;;;6.93;;
781;SDS011;374;52.568;13.402;2023-03-22T12:34:53;9.70;;;6.60;;
781;SDS011;374;52.568;13.402;2023-03-22T12:37:23;8.73;;;6.77;;
781;SDS011;374;52.568;13.402;2023-03-22T12:39:58;7.83;;;7.10;;
781;SDS011;374;52.568;13.402;2023-03-22T12:43:08;7.50;;;5.30;;
781;SDS011;374;52.568;13.402;2023-03-22T12:45:42;8.37;;;5.20;;
781;SDS011;374;52.568;13.402;2023-03-22T12:51:04;10.10;;;5.77;;
781;SDS011;374;52.568;13.402;2023-03-22T12:53:36;5.70;;;5.20;;
781;SDS011;374;52.568;13.402;2023-03-22T12:56:21;7.60;;;6.37;;
781;SDS011;374;52.568;13.402;2023-03-22T12:58:49;8.00;;;6.00;;
781;SDS011;374;52.568;13.402;2023-03-22T13:01:24;7.00;;;6.30;;
781;SDS011;374;52.568;13.402;2023-03-22T13:03:59;7.17;;;6.47;;
781;SDS011;374;52.568;13.402;2023-03-22T13:06:54;6.63;;;5.83;;
781;SDS011;374;52.568;13.402;2023-03-22T13:20:29;6.10;;;5.57;;
781;SDS011;374;52.568;13.402;2023-03-22T13:25:11;6.70;;;6.10;;
781;SDS011;374;52.568;13.402;2023-03-22T13:30:25;5.97;;;5.27;;
781;SDS011;374;52.568;13.402;2023-03-22T13:32:56;6.07;;;5.47;;
781;SDS011;374;52.568;13.402;2023-03-22T13:35:43;4.90;;;4.50;;
781;SDS011;374;52.568;13.402;2023-03-22T13:38:20;6.97;;;4.27;;
781;SDS011;374;52.568;13.402;2023-03-22T13:41:01;5.00;;;4.53;;
781;SDS011;374;52.568;13.402;2023-03-22T13:43:53;4.63;;;4.20;;
781;SDS011;374;52.568;13.402;2023-03-22T13:51:19;9.13;;;4.67;;
781;SDS011;374;52.568;13.402;2023-03-22T13:54:15;6.17;;;4.33;;
781;SDS011;374;52.568;13.402;2023-03-22T13:56:53;4.83;;;4.33;;
781;SDS011;374;52.568;13.402;2023-03-22T14:02:14;5.87;;;4.70;;
781;SDS011;374;52.568;13.402;2023-03-22T14:04:52;5.97;;;4.90;;
781;SDS011;374;52.568;13.402;2023-03-22T14:15:24;6.13;;;5.10;;
781;SDS011;374;52.568;13.402;2023-03-22T14:17:58;5.27;;;4.50;;
781;SDS011;374;52.568;13.402;2023-03-22T14:20:31;4.50;;;4.00;;
781;SDS011;374;52.568;13.402;2023-03-22T14:23:03;10.37;;;6.97;;
781;SDS011;374;52.568;13.402;2023-03-22T14:25:32;9.23;;;7.50;;
781;SDS011;374;52.568;13.402;2023-03-22T14:28:00;6.47;;;5.60;;
781;SDS011;374;52.568;13.402;2023-03-22T14:33:16;6.30;;;4.80;;
781;SDS011;374;52.568;13.402;2023-03-22T14:35:58;7.20;;;6.37;;
781;SDS011;374;52.568;13.402;2023-03-22T14:38:29;8.67;;;5.53;;
781;SDS011;374;52.568;13.402;2023-03-22T14:41:16;5.90;;;5.30;;
781;SDS011;374;52.568;13.402;2023-03-22T14:43:48;4.77;;;4.37;;
781;SDS011;374;52.568;13.402;2023-03-22T14:46:21;12.20;;;6.90;;
781;SDS011;374;52.568;13.402;2023-03-22T14:48:52;9.87;;;6.77;;
781;SDS011;374;52.568;13.402;2023-03-22T14:51:21;11.17;;;7.80;;
781;SDS011;374;52.568;13.402;2023-03-22T14:53:51;10.17;;;8.27;;
781;SDS011;374;52.568;13.402;2023-03-22T14:56:18;7.87;;;6.63;;
781;SDS011;374;52.568;13.402;2023-03-22T14:58:52;4.30;;;3.90;;
781;SDS011;374;52.568;13.402;2023-03-22T15:01:26;5.90;;;5.20;;
781;SDS011;374;52.568;13.402;2023-03-22T15:04:02;11.30;;;8.00;;
781;SDS011;374;52.568;13.402;2023-03-22T15:06:31;6.33;;;4.90;;
781;SDS011;374;52.568;13.402;2023-03-22T15:09:08;7.27;;;5.70;;
781;SDS011;374;52.568;13.402;2023-03-22T15:11:35;5.57;;;4.33;;
781;SDS011;374;52.568;13.402;2023-03-22T15:14:01;6.00;;;4.30;;
781;SDS011;374;52.568;13.402;2023-03-22T15:16:29;6.20;;;5.13;;
781;SDS011;374;52.568;13.402;2023-03-22T15:18:58;5.40;;;3.80;;
781;SDS011;374;52.568;13.402;2023-03-22T15:21:25;6.03;;;4.40;;
781;SDS011;374;52.568;13.402;2023-03-22T15:23:52;7.53;;;4.23;;
781;SDS011;374;52.568;13.402;2023-03-22T15:26:25;5.70;;;4.07;;
781;SDS011;374;52.568;13.402;2023-03-22T15:28:56;4.60;;;4.17;;
781;SDS011;374;52.568;13.402;2023-03-22T15:33:52;6.97;;;5.57;;
781;SDS011;374;52.568;13.402;2023-03-22T15:36:18;4.27;;;3.87;;
781;SDS011;374;52.568;13.402;2023-03-22T15:38:45;3.70;;;3.30;;
781;SDS011;374;52.568;13.402;2023-03-22T15:46:54;6.77;;;5.20;;
781;SDS011;374;52.568;13.402;2023-03-22T15:49:23;6.80;;;5.17;;
781;SDS011;374;52.568;13.402;2023-03-22T15:51:54;7.23;;;4.00;;
781;SDS011;374;52.568;13.402;2023-03-22T15:54:30;6.20;;;4.40;;
781;SDS011;374;52.568;13.402;2023-03-22T15:57:05;7.57;;;6.07;;
781;SDS011;374;52.568;13.402;2023-03-22T15:59:45;8.13;;;5.13;;
781;SDS011;374;52.568;13.402;2023-03-22T16:02:18;8.80;;;5.43;;
781;SDS011;374;52.568;13.402;2023-03-22T16:04:49;4.97;;;4.20;;
781;SDS011;374;52.568;13.402;2023-03-22T16:07:19;7.43;;;5.27;;
781;SDS011;374;52.568;13.402;2023-03-22T16:09:45;6.43;;;5.40;;
781;SDS011;374;52.568;13.402;2023-03-22T16:12:12;5.00;;;4.03;;
781;SDS011;374;52.568;13.402;2023-03-22T16:14:41;4.43;;;4.03;;
781;SDS011;374;52.568;13.402;2023-03-22T16:17:16;6.23;;;5.60;;
781;SDS011;374;52.568;13.402;2023-03-22T16:19:49;6.93;;;5.90;;
781;SDS011;374;52.568;13.402;2023-03-22T16:22:16;8.60;;;6.00;;
781;SDS011;374;52.568;13.402;2023-03-22T16:24:44;6.20;;;3.93;;
781;SDS011;374;52.568;13.402;2023-03-22T16:27:18;7.50;;;5.97;;
781;SDS011;374;52.568;13.402;2023-03-22T16:29:45;9.07;;;5.00;;
781;SDS011;374;52.568;13.402;2023-03-22T16:32:15;5.20;;;4.70;;
781;SDS011;374;52.568;13.402;2023-03-22T16:34:43;7.87;;;6.40;;
781;SDS011;374;52.568;13.402;2023-03-22T16:37:13;8.27;;;5.07;;
781;SDS011;374;52.568;13.402;2023-03-22T16:39:40;9.93;;;7.07;;
781;SDS011;374;52.568;13.402;2023-03-22T16:42:09;7.00;;;4.10;;
781;SDS011;374;52.568;13.402;2023-03-22T16:44:36;3.90;;;3.50;;
781;SDS011;374;52.568;13.402;2023-03-22T16:47:01;4.43;;;4.03;;
781;SDS011;374;52.568;13.402;2023-03-22T16:49:27;6.67;;;5.10;;
781;SDS011;374;52.568;13.402;2023-03-22T16:51:53;4.63;;;3.30;;
781;SDS011;374;52.568;13.402;2023-03-22T16:54:18;6.43;;;4.10;;
781;SDS011;374;52.568;13.402;2023-03-22T16:56:44;5.17;;;4.30;;
781;SDS011;374;52.568;13.402;2023-03-22T16:59:09;4.03;;;3.70;;
781;SDS011;374;52.568;13.402;2023-03-22T17:01:38;6.33;;;4.67;;
781;SDS011;374;52.568;13.402;2023-03-22T17:04:03;5.10;;;4.40;;
781;SDS011;374;52.568;13.402;2023-03-22T17:06:29;4.77;;;4.33;;
781;SDS011;374;52.568;13.402;2023-03-22T17:08:58;8.60;;;4.47;;